Más de esta sección

Vuelo de bajo nivel - Aeronáutica

 

                                                                                             

 

                           

                             VUELOS DE BAJO NIVEL DESDE SUPERFICIE HASTA 24,000 PIES

 VALIDO DESDE 021200Z...………………HASTA 030000ZSALIDA  Y  PUESTA  DEL  SOL  06:07/19:20 

SANTO DOMINGO FIR...PORT-AU-PRINCE FIR

HISPANIOLA...SCT020 SCT060. AFT 18Z ISOL SHRA/TSRA.

  OTLK...VFR SHRA TSRA.

WTRS...SCT025 SCT060. ISOL SHRA. WND E 20-25KT.

  OTLK...VFR SHRA WND.

 

5,000 FT.

10,000 FT.

18,000 FT.

24,000 FT.

MDSD

0920KT+19ºC

1215+09ºC

0910KT-05ºC

0710KT-16ºC

MTPP

1020KT+19ºC

1310+09ºC

0915KT-05ºC

0710KT-15ºC

TJSJ

1125KT+18ºC

1315+09ºC

1310KT-06ºC

0000KT-16ºC

 

 

 

 

 

 

TAF

TAF MDPP 021000Z 0212/0312 00000KT 9999 SCT018 SCT300 BECMG 0213/0215 10014KT=

TAF MDST 021000Z 0212/0312 13010KT 9999 FEW018 SCT300=

TAF MDPC 021000Z 0212/0312 06010KT 9999 SCT018 BECMG 0220/0222 16010KT  PROB30 0221/0303 7000 -TSRA FEW014CB BKN016 BKN070 =

TAF MDBH 021000Z 0212/0312 00000KT 9999 FEW018 FM 021500 13015KT 9999 FEW023 PROB40 0300/0306 8000 -TSRA FEW016CB BKN016 BKN070 =

TAF MDJB 021000Z 0212/0312 35005KT 9999 FEW018 SCT300 BECMG 0218/0220 07012KT PROB40 0300/0306 6000 TSRA FEW014CB BKN016 BKN070=

TAF MDSD 021000Z 0212/0312 02010KT 9999 FEW018 SCT300 BECMG 0216/0218 09015KT PROB40 0222/0203 7000 -TSRA FEW016CB BKN016 BKN070=

TAF MDLR 021000Z 0212/0312 07015KT 9999 FEW018 SCT300 PROB40 0221/0303 7000 -TSRA FEW016CB BKN016 SCT070=

TAF MDCY 021000Z 0212/0312 00000KT 9999 SCT018 PROB30 0215/0220 8000 -SHRA BKN018 BECMG 0216/0218 07010KT=

 

KMIA 020849Z 0209/0312 12008KT P6SM SCT025 SCT250 FM021400 13012KT P6SM SCT035
  FM030400 11007KT P6SM VCSH SCT020

 KJFK 020832Z 0209/0312 21011KT P6SM SCT060 OVC100 FM021000 22012KT P6SM VCSH SCT040 BKN060 FM021900 23012KT 6SM -SHRA BR SCT040 BKN060 PROB30 0219/0224 3SM TSRA BKN040CB FM030000 24008KT P6SM SCT060 PROB30 0300/0306 4SM -SHRA BKN060
  FM030600 28007KT P6SM BKN100 FM031000 32005KT P6SM BKN100

 TJSJ 020545Z 0206/0306 09013KT P6SM VCSH SCT022 SCT035 FM020900 09015KT P6SM VCSH SCT025 SCT035 SCT050 FM021500 09012G26KT P6SM SHRA VCTS SCT020 SCT035CB OVC060
  TEMPO 0216/0220 2SM +TSRA BKN020 OVC030CB FM022000 12015G28KT 6SM TSRA BKN025CB OVC050 FM030000 12008G16KT P6SM -SHRA VCTS SCT024 SCT035CB OVC060

 MUHA 020500Z 0206/0306 VRB03KT 9000 FEW030 BECMG 0214/0216 12010KT
  TEMPO 0220/0224 VRB12KT 3000 TSRA FEW018CB BKN020

 TAF MUGM 0207/0307 34006KT 9999 FEW030 SCT250 QNH2994INS FM021500 10015G20KT 9999 FEW030 SCT250 QNH2990INS BECMG 0220/0222 05009KT 9999 FEW030 SCT250 QNH2997INS T24/0209Z T32/0216Z FN00150

 TAF COR TNCC 020500Z 0206/0306 09004KT 9999 SCT018 TEMPO 0205/0218 08012G22KT 4000 SHRA FEW012CB BKN014

 TAF MKJP 020515Z 0206/0306 35008KT 9999 FEW022 BECMG 0214/0216 14025KT FEW020 FEW022CB PROB40 TEMPO 0218/0224 TS SCT020CB BECMG 0302/0304 35008KT FEW022

 

PREPARADO POR: FRANCISCA RODRIGUEZ EL 02 DE JULIO DE 2022.